Time;durP1;ratioP1;P1;durP2;ratioP2;P2;SDS_P1;SDS_P2;PMS_P1;PMS_P2;Temp;Humidity;BMP_temperature;BMP_pressure;BME280_temperature;BME280_humidity;BME280_pressure;Samples;Min_cycle;Max_cycle;Signal;HPM_P1;HPM_P2
2021/12/20 19:31:20;;;;;;;12.03;7.80;;;0.20;99.90;;;;;;5068749;28;20282;-76
2021/12/20 19:33:46;;;;;;;14.73;9.00;;;0.10;99.90;;;;;;5049329;28;20166;-76
2021/12/20 19:36:12;;;;;;;15.83;9.67;;;0.10;99.90;;;;;;5067291;27;20185;-76
2021/12/20 19:38:58;;;;;;;23.50;13.00;;;0.20;99.90;;;;;;5067520;27;20258;-77
2021/12/20 19:41:24;;;;;;;24.93;14.10;;;0.20;99.90;;;;;;5066907;28;20177;-77
2021/12/20 19:43:50;;;;;;;30.47;15.20;;;0.20;99.90;;;;;;5066206;28;20177;-77
2021/12/20 19:46:22;;;;;;;30.70;15.20;;;0.20;99.90;;;;;;5067141;28;20177;-77
2021/12/20 19:49:04;;;;;;;26.47;14.70;;;0.20;99.90;;;;;;5065695;28;20220;-77
2021/12/20 19:51:29;;;;;;;26.37;14.90;;;0.20;99.90;;;;;;5066990;28;20162;-77
2021/12/20 19:57:41;;;;;;;27.57;15.53;;;0.00;99.90;;;;;;5066994;28;20224;-77
2021/12/20 20:00:08;;;;;;;27.67;15.83;;;-0.20;99.90;;;;;;5067248;27;20640;-78
2021/12/20 20:02:33;;;;;;;35.03;16.43;;;-0.30;99.90;;;;;;5065635;28;20178;-77
2021/12/20 20:04:59;;;;;;;27.37;15.47;;;-0.30;99.90;;;;;;5066431;28;20237;-77
2021/12/20 20:07:24;;;;;;;22.87;14.67;;;-0.30;99.90;;;;;;5066051;28;20202;-77
2021/12/20 20:09:50;;;;;;;25.80;14.57;;;-0.30;99.90;;;;;;5066999;27;20207;-77
2021/12/20 20:12:19;;;;;;;17.87;11.00;;;-0.30;99.90;;;;;;5065710;28;20174;-77
2021/12/20 20:14:45;;;;;;;15.50;8.33;;;-0.30;99.90;;;;;;5065481;28;20245;-77
2021/12/20 20:17:47;;;;;;;12.87;7.40;;;-0.30;99.90;;;;;;5065720;27;20213;-77
2021/12/20 20:20:12;;;;;;;15.20;7.47;;;-0.30;99.90;;;;;;5065440;27;20268;-77
2021/12/20 20:23:13;;;;;;;13.77;7.40;;;-0.30;99.90;;;;;;5065313;28;20220;-77
2021/12/20 20:25:38;;;;;;;12.17;6.90;;;-0.50;99.90;;;;;;5065437;28;20174;-77
2021/12/20 20:28:04;;;;;;;14.40;6.90;;;-0.60;99.90;;;;;;5065002;28;20208;-77
2021/12/20 20:30:33;;;;;;;10.20;6.17;;;-0.70;99.90;;;;;;5066257;28;20242;-77
2021/12/20 20:32:59;;;;;;;12.43;6.47;;;-0.80;99.90;;;;;;5065988;27;20185;-77
2021/12/20 20:35:25;;;;;;;12.83;6.00;;;-0.80;99.90;;;;;;5065648;28;20173;-77
2021/12/20 20:37:51;;;;;;;11.03;5.80;;;-0.80;99.90;;;;;;5065432;28;20722;-77
2021/12/20 20:40:31;;;;;;;12.03;5.70;;;-0.80;99.90;;;;;;5061632;28;20178;-78
2021/12/20 20:43:01;;;;;;;9.13;5.00;;;-0.80;99.90;;;;;;5052851;28;20169;-77
2021/12/20 20:45:28;;;;;;;9.07;4.87;;;-0.80;99.90;;;;;;5051866;28;20254;-77
2021/12/20 20:47:53;;;;;;;10.30;5.63;;;-0.80;99.90;;;;;;5052496;28;20194;-77
2021/12/20 20:50:19;;;;;;;13.20;7.03;;;-0.80;99.90;;;;;;5051282;28;20560;-77
2021/12/20 20:52:45;;;;;;;18.60;11.73;;;-0.70;99.90;;;;;;5051362;28;20261;-77
2021/12/20 20:55:11;;;;;;;17.33;12.30;;;-0.80;99.90;;;;;;5052606;28;20178;-77
2021/12/20 20:57:38;;;;;;;31.20;15.03;;;-0.70;99.90;;;;;;5051121;28;20202;-77
2021/12/20 21:02:58;;;;;;;32.80;22.57;;;-0.40;99.90;;;;;;5052727;28;20170;-77
2021/12/20 21:08:45;;;;;;;75.13;46.30;;;-0.40;99.90;;;;;;5052290;28;20218;-77
2021/12/20 21:11:12;;;;;;;47.17;28.00;;;-0.50;99.90;;;;;;5051111;28;20178;-77
2021/12/20 21:13:38;;;;;;;38.43;23.00;;;-0.40;99.90;;;;;;5051092;28;20178;-77
2021/12/20 21:16:04;;;;;;;31.87;20.23;;;-0.40;99.90;;;;;;5051218;28;20180;-77
2021/12/20 21:18:45;;;;;;;85.03;44.23;;;-0.40;99.90;;;;;;5051230;28;20208;-77
2021/12/20 21:21:11;;;;;;;120.67;51.20;;;-0.60;99.90;;;;;;5051035;28;20178;-77
2021/12/20 21:23:46;;;;;;;232.00;101.37;;;-0.60;99.90;;;;;;5050952;28;20174;-77
2021/12/20 21:26:13;;;;;;;160.63;74.87;;;-0.50;99.90;;;;;;5052138;28;20166;-77
2021/12/20 21:28:38;;;;;;;65.70;34.67;;;-0.60;99.90;;;;;;5052119;28;20221;-77
2021/12/20 21:31:04;;;;;;;35.60;18.23;;;-0.50;99.90;;;;;;5050860;28;20166;-77
2021/12/20 21:33:30;;;;;;;99.57;47.63;;;-0.60;99.90;;;;;;5051248;28;20175;-77
2021/12/20 21:36:07;;;;;;;29.37;17.07;;;-0.80;99.90;;;;;;5051641;28;20314;-77
2021/12/20 21:38:32;;;;;;;24.17;15.30;;;-1.00;99.90;;;;;;5050701;28;20209;-77
2021/12/20 21:40:58;;;;;;;31.70;14.97;;;-1.00;99.90;;;;;;5050690;28;20178;-77
2021/12/20 21:43:24;;;;;;;25.67;12.33;;;-1.10;99.90;;;;;;5050611;28;20262;-77
2021/12/20 21:45:51;;;;;;;59.57;34.40;;;-1.20;99.90;;;;;;5051802;28;20282;-77
2021/12/20 21:55:00;;;;;;;26.73;14.43;;;-1.30;99.90;;;;;;5051839;28;20165;-77
2021/12/20 21:57:26;;;;;;;58.77;37.50;;;-1.40;99.90;;;;;;5050396;28;20198;-77
2021/12/20 21:59:52;;;;;;;64.17;38.57;;;-1.40;99.90;;;;;;5050442;28;20193;-77
2021/12/20 22:02:18;;;;;;;33.73;20.60;;;-1.40;99.90;;;;;;5051624;28;20217;-77
2021/12/20 22:05:07;;;;;;;48.70;30.40;;;-1.40;99.90;;;;;;5051594;28;20174;-77
2021/12/20 22:07:33;;;;;;;64.37;38.03;;;-1.30;99.90;;;;;;5050936;28;20201;-77
2021/12/20 22:13:20;;;;;;;19.43;12.80;;;-1.10;99.90;;;;;;5051458;28;20180;-77
2021/12/20 22:15:46;;;;;;;16.23;11.17;;;-0.90;99.90;;;;;;5050202;28;20272;-77
2021/12/20 22:18:11;;;;;;;11.77;8.53;;;-0.80;99.90;;;;;;5050058;28;20277;-77
2021/12/20 22:23:59;;;;;;;68.00;48.30;;;-0.80;99.90;;;;;;5051297;28;20242;-77
2021/12/20 22:26:25;;;;;;;30.23;19.93;;;-0.80;99.90;;;;;;5049963;28;20206;-77
2021/12/20 22:28:51;;;;;;;22.73;14.47;;;-1.00;99.90;;;;;;5049586;28;20222;-78
2021/12/20 22:31:17;;;;;;;17.37;10.00;;;-1.10;99.90;;;;;;5051171;28;20162;-78
2021/12/20 22:33:44;;;;;;;18.37;9.50;;;-1.20;99.90;;;;;;5049860;28;20186;-78
2021/12/20 22:36:24;;;;;;;12.97;8.37;;;-1.20;99.90;;;;;;5051039;28;20183;-77
2021/12/20 22:38:51;;;;;;;9.27;6.10;;;-1.20;99.90;;;;;;5051220;28;20166;-77
2021/12/20 22:41:16;;;;;;;14.27;7.10;;;-1.20;99.90;;;;;;5049757;28;20675;-77
2021/12/20 22:43:42;;;;;;;11.03;7.07;;;-1.30;99.90;;;;;;5049727;28;20200;-77
2021/12/20 22:46:07;;;;;;;10.37;7.10;;;-1.30;99.90;;;;;;5050921;28;20257;-77
2021/12/20 22:48:33;;;;;;;11.07;7.40;;;-1.30;99.90;;;;;;5049812;28;20202;-77
2021/12/20 22:50:59;;;;;;;9.93;7.63;;;-1.20;99.90;;;;;;5050849;28;20181;-77
2021/12/20 22:53:24;;;;;;;21.53;12.47;;;-1.20;99.90;;;;;;5050847;28;20192;-77
2021/12/20 22:55:50;;;;;;;16.67;9.00;;;-1.20;99.90;;;;;;5049563;28;20174;-77
2021/12/20 22:58:15;;;;;;;16.53;9.00;;;-1.20;99.90;;;;;;5049494;28;20194;-77
2021/12/20 23:00:44;;;;;;;11.37;6.87;;;-1.20;99.90;;;;;;5049512;28;20652;-77
2021/12/20 23:06:22;;;;;;;23.23;12.47;;;-1.20;99.90;;;;;;5051038;28;20238;-77
2021/12/20 23:08:47;;;;;;;23.27;11.83;;;-1.20;99.90;;;;;;5050429;28;20235;-77
2021/12/20 23:11:13;;;;;;;50.73;29.83;;;-1.20;99.90;;;;;;5050532;28;20170;-77
2021/12/20 23:13:53;;;;;;;39.10;21.00;;;-1.30;99.90;;;;;;5049526;28;20179;-77
2021/12/20 23:16:18;;;;;;;23.10;11.47;;;-1.30;99.90;;;;;;5050794;28;20161;-77
2021/12/20 23:18:44;;;;;;;32.07;15.37;;;-1.20;99.90;;;;;;5050361;28;20201;-77
2021/12/20 23:21:10;;;;;;;21.00;11.50;;;-1.20;99.90;;;;;;5050797;28;20221;-77
2021/12/20 23:23:36;;;;;;;18.53;12.30;;;-1.20;99.90;;;;;;5049230;28;20177;-77
2021/12/20 23:26:01;;;;;;;20.30;10.20;;;-1.10;99.90;;;;;;5049137;28;20178;-77
2021/12/20 23:31:50;;;;;;;18.03;9.87;;;-1.10;99.90;;;;;;5050421;28;20265;-76
2021/12/20 23:34:16;;;;;;;14.27;8.67;;;-1.10;99.90;;;;;;5049170;28;20224;-76
2021/12/20 23:36:41;;;;;;;15.83;7.77;;;-1.10;99.90;;;;;;5049266;28;20222;-76
2021/12/20 23:39:19;;;;;;;11.07;6.93;;;-1.10;99.90;;;;;;5050228;28;20174;-74
2021/12/20 23:41:47;;;;;;;15.00;7.20;;;-1.10;99.90;;;;;;5050108;28;20154;-74
2021/12/20 23:44:14;;;;;;;11.90;7.50;;;-1.20;99.90;;;;;;5049037;28;20228;-74
2021/12/20 23:46:44;;;;;;;12.17;7.03;;;-1.10;99.90;;;;;;5048564;28;20637;-74
2021/12/20 23:49:11;;;;;;;9.83;6.03;;;-1.10;99.90;;;;;;5049978;28;20201;-74
2021/12/20 23:51:37;;;;;;;8.83;6.10;;;-1.20;99.90;;;;;;5050320;28;20206;-74
2021/12/20 23:54:04;;;;;;;9.93;6.20;;;-1.30;99.90;;;;;;5048817;28;20179;-74
2021/12/20 23:56:30;;;;;;;12.63;6.70;;;-1.30;99.90;;;;;;5049914;28;20181;-75
2021/12/20 23:58:56;;;;;;;11.80;6.13;;;-1.30;99.90;;;;;;5048841;28;20182;-75
